Time;durP1;ratioP1;P1;durP2;ratioP2;P2;SDS_P1;SDS_P2;PMS_P1;PMS_P2;Temp;Humidity;BMP_temperature;BMP_pressure;BME280_temperature;BME280_humidity;BME280_pressure;Samples;Min_cycle;Max_cycle;Signal;HPM_P1;HPM_P2
2021/01/06 00:02:00;;;;;;;10.43;7.40;;;5.10;86.50;;;;;;5093352;28;20158;-73
2021/01/06 00:04:26;;;;;;;9.45;6.97;;;5.10;86.50;;;;;;5093299;28;20031;-73
2021/01/06 00:06:52;;;;;;;11.77;7.13;;;5.10;86.50;;;;;;5093218;28;20052;-72
2021/01/06 00:09:17;;;;;;;9.30;6.53;;;5.10;86.50;;;;;;5091845;28;20031;-73
2021/01/06 00:11:43;;;;;;;9.40;6.53;;;5.10;86.50;;;;;;5093013;28;20024;-73
2021/01/06 00:14:12;;;;;;;12.98;8.32;;;5.10;86.50;;;;;;5091799;28;20383;-73
2021/01/06 00:16:37;;;;;;;11.70;7.85;;;5.20;86.70;;;;;;5091796;28;20030;-74
2021/01/06 00:19:05;;;;;;;11.05;7.13;;;5.10;86.50;;;;;;5093124;28;20051;-73
2021/01/06 00:21:30;;;;;;;12.50;8.10;;;5.10;86.60;;;;;;5091989;28;20042;-72
2021/01/06 00:23:56;;;;;;;13.80;8.20;;;5.10;86.70;;;;;;5092945;28;20020;-73
2021/01/06 00:26:21;;;;;;;11.95;7.15;;;5.10;86.70;;;;;;5091526;28;20387;-73
2021/01/06 00:28:47;;;;;;;11.30;7.85;;;5.10;86.80;;;;;;5092867;28;20024;-72
2021/01/06 00:31:13;;;;;;;13.98;7.95;;;5.00;86.80;;;;;;5092823;28;20047;-73
2021/01/06 00:33:38;;;;;;;11.27;7.75;;;5.10;86.90;;;;;;5091322;28;20030;-73
2021/01/06 00:36:09;;;;;;;10.65;7.57;;;5.00;86.90;;;;;;5092659;28;20020;-72
2021/01/06 00:38:38;;;;;;;10.88;7.35;;;5.10;87.00;;;;;;5092875;28;20024;-72
2021/01/06 00:41:04;;;;;;;10.65;6.90;;;5.00;87.00;;;;;;5092886;28;20084;-72
2021/01/06 00:43:30;;;;;;;11.10;7.30;;;5.10;86.90;;;;;;5092811;28;20387;-73
2021/01/06 00:45:56;;;;;;;9.75;6.90;;;5.10;86.80;;;;;;5092945;28;20021;-72
2021/01/06 00:48:21;;;;;;;15.73;7.70;;;5.10;86.90;;;;;;5091511;28;20020;-72
2021/01/06 00:50:48;;;;;;;12.65;7.80;;;5.10;86.90;;;;;;5091570;28;20016;-72
2021/01/06 00:53:23;;;;;;;10.93;7.38;;;5.10;86.80;;;;;;5095369;28;20107;-72
2021/01/06 00:55:50;;;;;;;10.40;7.30;;;5.10;86.70;;;;;;5095140;28;20442;-72
2021/01/06 00:58:16;;;;;;;10.50;7.05;;;5.10;86.60;;;;;;5095177;28;20016;-72
2021/01/06 01:00:42;;;;;;;12.35;7.65;;;5.10;86.60;;;;;;5096496;28;20440;-72
2021/01/06 01:03:08;;;;;;;11.77;7.32;;;5.00;86.70;;;;;;5094954;28;20178;-72
2021/01/06 01:05:35;;;;;;;11.70;7.32;;;5.00;86.70;;;;;;5094851;28;20022;-72
2021/01/06 01:08:01;;;;;;;11.35;7.25;;;5.00;86.70;;;;;;5094673;28;20073;-72
2021/01/06 01:10:48;;;;;;;12.52;7.25;;;5.00;86.70;;;;;;5094825;28;20012;-73
2021/01/06 01:13:20;;;;;;;10.25;6.97;;;5.10;86.70;;;;;;5095875;28;20040;-72
2021/01/06 01:15:48;;;;;;;10.95;7.20;;;5.10;86.60;;;;;;5095979;28;20099;-73
2021/01/06 01:18:17;;;;;;;9.93;6.80;;;5.10;86.60;;;;;;5096146;28;20448;-73
2021/01/06 01:20:51;;;;;;;12.18;8.25;;;5.00;86.60;;;;;;5094634;28;20107;-73
2021/01/06 01:23:19;;;;;;;10.85;7.20;;;5.00;86.50;;;;;;5094566;28;20107;-73
2021/01/06 01:25:45;;;;;;;9.10;6.50;;;5.00;86.60;;;;;;5094413;28;20016;-72
2021/01/06 01:28:12;;;;;;;9.82;6.95;;;5.00;86.60;;;;;;5095906;28;20094;-73
2021/01/06 01:30:38;;;;;;;8.70;6.05;;;5.00;86.50;;;;;;5094403;28;20543;-73
2021/01/06 01:33:03;;;;;;;11.02;7.10;;;5.00;86.50;;;;;;5096220;28;20048;-72
2021/01/06 01:35:31;;;;;;;10.82;7.18;;;5.00;86.50;;;;;;5095609;28;20028;-73
2021/01/06 01:37:58;;;;;;;10.90;6.88;;;5.00;86.50;;;;;;5095744;28;20352;-73
2021/01/06 01:40:34;;;;;;;9.82;6.63;;;5.00;86.50;;;;;;5095735;28;20023;-72
2021/01/06 01:43:13;;;;;;;9.90;6.43;;;5.00;86.50;;;;;;5094349;28;20030;-73
2021/01/06 01:45:44;;;;;;;9.60;6.10;;;5.00;86.50;;;;;;5094366;28;20480;-72
2021/01/06 01:48:34;;;;;;;9.25;6.32;;;5.00;86.30;;;;;;5094366;28;20032;-72
2021/01/06 01:51:18;;;;;;;10.43;6.32;;;5.00;86.30;;;;;;5094360;28;20016;-72
2021/01/06 01:54:00;;;;;;;8.30;6.55;;;5.00;86.30;;;;;;5094190;28;20032;-73
2021/01/06 01:56:47;;;;;;;8.63;6.28;;;5.00;86.20;;;;;;5095542;28;20047;-74
2021/01/06 01:59:39;;;;;;;8.30;6.22;;;5.10;86.30;;;;;;5095549;28;20020;-73
2021/01/06 02:02:41;;;;;;;10.65;6.63;;;5.00;86.10;;;;;;5094725;28;20044;-73
2021/01/06 02:05:13;;;;;;;10.13;6.80;;;5.00;86.10;;;;;;5094688;28;20115;-72
2021/01/06 02:07:47;;;;;;;8.00;5.68;;;5.00;86.10;;;;;;5094953;28;20028;-73
2021/01/06 02:10:25;;;;;;;10.32;6.63;;;5.00;86.10;;;;;;5095039;28;20070;-72
2021/01/06 02:12:59;;;;;;;10.02;6.43;;;5.10;86.00;;;;;;5093425;28;20043;-73
2021/01/06 02:15:45;;;;;;;6.60;5.80;;;5.00;85.80;;;;;;5095011;28;20464;-73
2021/01/06 02:18:13;;;;;;;8.20;6.10;;;5.00;85.90;;;;;;5094913;28;20077;-73
2021/01/06 02:20:39;;;;;;;9.60;6.75;;;5.00;86.00;;;;;;5094946;28;20032;-73
2021/01/06 02:23:05;;;;;;;8.48;6.30;;;5.00;85.70;;;;;;5093474;28;20027;-73
2021/01/06 02:25:32;;;;;;;8.50;6.60;;;4.90;85.70;;;;;;5093368;28;20024;-73
2021/01/06 02:28:00;;;;;;;9.32;6.22;;;4.90;85.70;;;;;;5093244;28;20126;-73
2021/01/06 02:30:27;;;;;;;9.52;6.47;;;4.90;85.80;;;;;;5094619;28;20023;-73
2021/01/06 02:32:53;;;;;;;10.38;7.03;;;4.90;85.70;;;;;;5094684;28;20103;-73
2021/01/06 02:35:20;;;;;;;9.15;6.60;;;4.90;85.50;;;;;;5093410;28;20463;-73
2021/01/06 02:37:47;;;;;;;9.18;6.63;;;4.80;85.60;;;;;;5093405;28;20031;-73
2021/01/06 02:40:14;;;;;;;10.52;6.35;;;4.80;85.70;;;;;;5093301;28;20028;-72
2021/01/06 02:42:40;;;;;;;10.55;7.05;;;4.80;85.60;;;;;;5093119;28;20024;-73
2021/01/06 02:45:10;;;;;;;9.43;6.10;;;4.80;85.60;;;;;;5093276;28;20494;-73
2021/01/06 02:47:36;;;;;;;9.45;6.57;;;4.80;85.70;;;;;;5094628;28;20119;-73
2021/01/06 02:50:06;;;;;;;8.88;6.57;;;4.80;85.60;;;;;;5094503;28;20024;-73
2021/01/06 02:52:42;;;;;;;9.52;6.18;;;4.70;85.60;;;;;;5092900;28;20038;-73
2021/01/06 02:55:10;;;;;;;9.82;6.70;;;4.70;85.70;;;;;;5094260;28;20032;-73
2021/01/06 02:57:37;;;;;;;9.63;7.05;;;4.80;85.80;;;;;;5092965;28;20093;-73
2021/01/06 03:00:06;;;;;;;11.38;7.03;;;4.70;85.70;;;;;;5094223;28;20082;-73
2021/01/06 03:02:32;;;;;;;11.50;7.60;;;4.70;85.60;;;;;;5092858;28;20024;-73
2021/01/06 03:05:15;;;;;;;15.00;7.72;;;4.70;85.60;;;;;;5094513;28;20364;-73
2021/01/06 03:07:41;;;;;;;9.55;6.97;;;4.70;85.60;;;;;;5093917;28;20039;-73
2021/01/06 03:10:09;;;;;;;9.32;7.07;;;4.70;85.70;;;;;;5094065;28;20024;-73
2021/01/06 03:12:35;;;;;;;11.52;7.45;;;4.70;85.60;;;;;;5092404;28;20048;-73
2021/01/06 03:15:03;;;;;;;9.45;7.18;;;4.70;85.70;;;;;;5093884;28;20107;-73
2021/01/06 03:17:31;;;;;;;9.00;7.32;;;4.70;85.70;;;;;;5093456;28;20373;-73
2021/01/06 03:20:02;;;;;;;10.00;7.18;;;4.80;85.60;;;;;;5092987;28;20333;-73
2021/01/06 03:22:28;;;;;;;10.52;7.30;;;4.70;85.50;;;;;;5093787;28;20483;-73
2021/01/06 03:25:00;;;;;;;10.23;7.35;;;4.70;85.50;;;;;;5092661;28;20022;-73
2021/01/06 03:27:27;;;;;;;9.13;6.65;;;4.80;85.60;;;;;;5093880;28;20504;-73
2021/01/06 03:29:54;;;;;;;11.15;8.00;;;4.80;85.40;;;;;;5094002;28;20531;-73
2021/01/06 03:32:49;;;;;;;10.65;7.15;;;4.80;85.10;;;;;;5092577;28;20483;-73
2021/01/06 03:35:34;;;;;;;10.38;8.00;;;4.70;85.20;;;;;;5092567;28;20119;-73
2021/01/06 03:38:15;;;;;;;10.63;7.80;;;4.70;85.20;;;;;;5094158;28;20024;-73
2021/01/06 03:40:47;;;;;;;11.52;7.72;;;4.70;85.20;;;;;;5093767;28;20111;-73
2021/01/06 03:43:15;;;;;;;11.00;7.10;;;4.60;85.20;;;;;;5092198;28;20028;-73
2021/01/06 03:45:45;;;;;;;11.73;7.80;;;4.60;85.20;;;;;;5092214;28;20036;-73
2021/01/06 03:48:28;;;;;;;12.48;7.10;;;4.60;85.20;;;;;;5092198;28;20020;-73
2021/01/06 03:51:04;;;;;;;11.57;7.70;;;4.60;85.20;;;;;;5093691;28;20472;-73
2021/01/06 03:53:43;;;;;;;13.45;7.93;;;4.60;85.30;;;;;;5093317;28;20020;-73
2021/01/06 03:56:20;;;;;;;9.98;7.15;;;4.60;85.80;;;;;;5092025;28;20020;-73
2021/01/06 03:59:04;;;;;;;9.40;7.50;;;4.60;85.10;;;;;;5093253;28;20020;-73
2021/01/06 04:01:48;;;;;;;8.85;7.43;;;4.60;85.20;;;;;;5093193;28;20126;-73
2021/01/06 04:04:17;;;;;;;;;;;4.60;85.20;;;;;;5092214;28;20111;-73
2021/01/06 04:06:49;;;;;;;12.68;7.82;;;4.60;85.10;;;;;;5091645;28;19908;-73
2021/01/06 04:09:44;;;;;;;9.45;7.07;;;4.60;84.90;;;;;;5093153;28;20032;-73
2021/01/06 04:12:14;;;;;;;11.73;7.70;;;4.60;85.00;;;;;;5089359;28;20101;-73
2021/01/06 04:14:41;;;;;;;9.10;7.03;;;4.50;85.00;;;;;;5092524;28;20016;-73
2021/01/06 04:17:15;;;;;;;9.85;7.43;;;4.50;85.10;;;;;;5091770;28;20540;-73
2021/01/06 04:19:45;;;;;;;9.70;7.15;;;4.60;85.10;;;;;;5093330;28;20406;-73
2021/01/06 04:22:11;;;;;;;9.82;6.25;;;4.50;84.90;;;;;;5091718;28;20028;-73
2021/01/06 04:24:37;;;;;;;10.05;6.78;;;4.50;85.10;;;;;;5091728;28;20143;-73
2021/01/06 04:27:02;;;;;;;10.30;6.95;;;4.60;85.10;;;;;;5094061;28;20039;-73
2021/01/06 04:29:28;;;;;;;10.43;6.85;;;4.60;85.00;;;;;;5097180;28;20024;-74
2021/01/06 04:31:54;;;;;;;10.68;7.43;;;4.60;85.10;;;;;;5096128;28;20032;-73
2021/01/06 04:34:19;;;;;;;10.27;7.45;;;4.60;85.10;;;;;;5096014;28;20020;-72
2021/01/06 04:36:45;;;;;;;11.55;7.07;;;4.60;85.00;;;;;;5097139;28;20056;-72
2021/01/06 04:39:11;;;;;;;10.57;6.85;;;4.60;85.00;;;;;;5097520;28;20356;-72
2021/01/06 04:41:46;;;;;;;9.18;7.05;;;4.70;85.10;;;;;;5097151;28;20028;-72
2021/01/06 04:44:18;;;;;;;10.73;7.60;;;4.70;84.90;;;;;;5096911;28;20029;-72
2021/01/06 04:47:22;;;;;;;12.00;6.47;;;4.70;84.80;;;;;;5096884;28;20468;-72
2021/01/06 04:50:15;;;;;;;11.00;7.20;;;4.70;84.90;;;;;;5067328;28;20085;-72
2021/01/06 04:53:24;;;;;;;10.45;6.57;;;4.60;84.90;;;;;;5095464;28;20031;-72
2021/01/06 04:56:11;;;;;;;11.05;7.53;;;4.50;85.00;;;;;;5095279;28;20029;-72
2021/01/06 04:58:57;;;;;;;9.23;6.53;;;4.50;85.10;;;;;;5095858;28;20062;-72
2021/01/06 05:01:41;;;;;;;9.35;6.70;;;4.40;85.10;;;;;;5095084;28;20081;-72
2021/01/06 05:04:31;;;;;;;12.60;7.78;;;4.50;85.20;;;;;;5096541;28;20377;-73
2021/01/06 05:06:57;;;;;;;10.57;7.85;;;4.40;85.20;;;;;;5096418;28;20332;-73
2021/01/06 05:09:44;;;;;;;9.43;6.60;;;4.40;85.10;;;;;;5094901;28;20028;-72
2021/01/06 05:12:19;;;;;;;11.02;7.00;;;4.40;85.30;;;;;;5094714;28;20040;-73
2021/01/06 05:14:59;;;;;;;11.10;7.30;;;4.30;85.20;;;;;;5094827;28;20030;-73
2021/01/06 05:17:25;;;;;;;14.80;6.85;;;4.30;85.40;;;;;;5094900;28;20390;-73
2021/01/06 05:19:51;;;;;;;8.73;6.72;;;4.40;85.50;;;;;;5095991;28;20111;-72
2021/01/06 05:22:18;;;;;;;10.23;6.95;;;4.40;85.40;;;;;;5094799;28;20024;-73
2021/01/06 05:24:46;;;;;;;10.20;7.28;;;4.40;85.30;;;;;;5094755;28;20032;-72
2021/01/06 05:27:12;;;;;;;9.32;6.47;;;4.40;85.10;;;;;;5096204;28;20036;-72
2021/01/06 05:29:46;;;;;;;10.30;6.80;;;4.40;85.20;;;;;;5094817;28;20032;-72
2021/01/06 05:32:32;;;;;;;12.70;8.05;;;4.40;85.10;;;;;;5094735;28;20392;-72
2021/01/06 05:35:06;;;;;;;9.13;6.78;;;4.40;85.00;;;;;;5096641;28;20490;-73
2021/01/06 05:37:32;;;;;;;10.90;6.65;;;4.40;85.10;;;;;;5096024;28;20063;-73
2021/01/06 05:40:04;;;;;;;10.55;6.88;;;4.40;85.20;;;;;;5095252;28;20372;-73
2021/01/06 05:42:35;;;;;;;11.00;6.75;;;4.40;85.20;;;;;;5095805;28;20032;-73
2021/01/06 05:45:05;;;;;;;10.10;6.70;;;4.40;85.10;;;;;;5095957;28;20046;-72
2021/01/06 05:47:55;;;;;;;10.90;6.57;;;4.30;85.10;;;;;;5094484;28;20066;-73
2021/01/06 05:50:28;;;;;;;8.02;6.47;;;4.30;85.10;;;;;;5094362;28;20057;-73
2021/01/06 05:53:06;;;;;;;9.73;6.60;;;4.30;85.10;;;;;;5095708;28;20039;-72
2021/01/06 05:55:36;;;;;;;9.55;6.50;;;4.30;85.10;;;;;;5094102;28;20028;-73
2021/01/06 05:58:24;;;;;;;10.07;6.72;;;4.20;85.00;;;;;;5094113;28;20073;-73
2021/01/06 06:01:12;;;;;;;8.77;6.35;;;4.20;85.10;;;;;;5094066;28;20426;-73
2021/01/06 06:04:16;;;;;;;10.25;6.97;;;4.20;85.00;;;;;;5095853;28;20139;-73
2021/01/06 06:07:05;;;;;;;9.57;6.35;;;4.10;84.90;;;;;;5093898;28;20035;-73
2021/01/06 06:10:00;;;;;;;8.90;6.15;;;4.10;84.90;;;;;;5093943;28;20119;-73
2021/01/06 06:12:45;;;;;;;9.93;6.97;;;4.10;85.00;;;;;;5093625;28;20038;-73
2021/01/06 06:15:38;;;;;;;8.77;6.30;;;4.10;85.10;;;;;;5094124;28;20027;-73
2021/01/06 06:18:20;;;;;;;10.10;6.82;;;4.00;85.00;;;;;;5095355;28;20024;-73
2021/01/06 06:20:58;;;;;;;10.98;6.68;;;4.00;85.00;;;;;;5093703;28;20024;-73
2021/01/06 06:23:48;;;;;;;9.38;6.50;;;4.00;85.00;;;;;;5095380;28;20024;-72
2021/01/06 06:26:38;;;;;;;8.90;6.03;;;3.90;84.90;;;;;;5093969;28;20483;-73
2021/01/06 06:29:22;;;;;;;8.90;6.70;;;3.90;84.90;;;;;;5093656;28;20020;-73
2021/01/06 06:31:53;;;;;;;8.88;6.50;;;3.90;84.90;;;;;;5093610;28;20042;-73
2021/01/06 06:34:37;;;;;;;9.88;6.32;;;4.00;85.00;;;;;;5093776;28;20031;-73
2021/01/06 06:37:08;;;;;;;8.43;6.13;;;4.00;85.00;;;;;;5090568;28;20024;-73
2021/01/06 06:39:59;;;;;;;8.40;6.57;;;4.00;84.90;;;;;;5094813;28;20021;-73
2021/01/06 06:42:32;;;;;;;9.68;6.40;;;4.00;84.80;;;;;;5088668;28;20040;-73
2021/01/06 06:45:12;;;;;;;8.82;6.28;;;4.00;84.90;;;;;;5094747;28;20028;-73
2021/01/06 06:48:01;;;;;;;11.00;6.30;;;3.90;84.80;;;;;;5094478;28;20533;-73
2021/01/06 06:50:35;;;;;;;8.27;5.95;;;3.90;84.90;;;;;;5094215;28;20380;-73
2021/01/06 06:53:22;;;;;;;9.40;5.97;;;3.90;84.90;;;;;;5092985;28;20020;-73
2021/01/06 06:55:54;;;;;;;8.57;6.47;;;3.90;85.00;;;;;;5094250;28;20201;-73
2021/01/06 06:58:44;;;;;;;8.73;6.22;;;3.90;84.90;;;;;;5092857;28;20040;-73
2021/01/06 07:01:15;;;;;;;8.68;5.72;;;3.90;84.90;;;;;;5092805;28;20029;-73
2021/01/06 07:03:50;;;;;;;9.63;5.85;;;3.90;84.90;;;;;;5094136;28;20113;-73
2021/01/06 07:06:16;;;;;;;8.35;5.95;;;3.90;84.80;;;;;;5094166;28;20031;-73
2021/01/06 07:08:45;;;;;;;9.85;5.90;;;3.90;84.80;;;;;;5094146;28;20024;-73
2021/01/06 07:11:32;;;;;;;12.45;6.32;;;3.90;84.80;;;;;;5094502;28;20016;-73
2021/01/06 07:14:14;;;;;;;10.48;6.93;;;3.90;84.80;;;;;;5092719;28;20048;-73
2021/01/06 07:17:06;;;;;;;8.52;6.32;;;3.90;84.90;;;;;;5094220;28;20028;-72
2021/01/06 07:19:52;;;;;;;12.07;6.82;;;3.90;85.00;;;;;;5092750;28;20081;-73
2021/01/06 07:22:28;;;;;;;8.88;6.47;;;3.90;85.00;;;;;;5094078;28;20027;-73
2021/01/06 07:25:04;;;;;;;8.45;6.03;;;3.90;85.00;;;;;;5092678;28;20028;-72
2021/01/06 07:27:32;;;;;;;9.73;7.05;;;4.00;84.90;;;;;;5093979;28;20391;-72
2021/01/06 07:29:58;;;;;;;12.60;6.80;;;4.00;84.90;;;;;;5093777;28;20028;-73
2021/01/06 07:32:43;;;;;;;8.65;5.95;;;4.00;84.80;;;;;;5093823;28;20012;-73
2021/01/06 07:35:11;;;;;;;10.60;6.05;;;4.10;84.80;;;;;;5093692;28;20020;-73
2021/01/06 07:37:44;;;;;;;7.95;5.82;;;4.10;84.80;;;;;;5093771;28;20111;-73
2021/01/06 07:40:16;;;;;;;9.77;6.47;;;4.20;84.80;;;;;;5092215;28;20024;-73
2021/01/06 07:42:45;;;;;;;10.43;6.55;;;4.30;84.70;;;;;;5092029;28;20029;-73
2021/01/06 07:45:13;;;;;;;8.70;5.93;;;4.30;84.50;;;;;;5093347;28;20103;-73
2021/01/06 07:48:01;;;;;;;9.68;6.70;;;4.30;84.50;;;;;;5091823;28;20498;-73
2021/01/06 07:50:29;;;;;;;9.60;6.32;;;4.40;84.50;;;;;;5092066;28;20123;-73
2021/01/06 07:53:11;;;;;;;9.45;6.20;;;4.40;84.50;;;;;;5093753;28;20051;-73
2021/01/06 07:55:58;;;;;;;9.43;6.75;;;4.50;84.30;;;;;;5091624;28;20012;-73
2021/01/06 07:58:30;;;;;;;8.77;6.13;;;4.50;84.30;;;;;;5093172;28;20042;-73
2021/01/06 08:00:56;;;;;;;9.13;5.90;;;4.50;84.30;;;;;;5091764;28;20054;-73
2021/01/06 08:03:34;;;;;;;8.68;6.55;;;4.50;84.40;;;;;;5091255;28;20050;-73
2021/01/06 08:06:03;;;;;;;9.25;6.43;;;4.60;84.40;;;;;;5093211;28;20032;-73
2021/01/06 08:08:40;;;;;;;10.05;7.05;;;4.50;84.10;;;;;;5091525;28;20387;-73
2021/01/06 08:11:07;;;;;;;11.23;7.47;;;4.60;84.20;;;;;;5092772;28;20020;-73
2021/01/06 08:13:55;;;;;;;8.40;6.20;;;4.60;84.10;;;;;;5092583;28;20109;-73
2021/01/06 08:16:47;;;;;;;10.85;7.15;;;4.60;84.10;;;;;;5092494;28;20040;-73
2021/01/06 08:19:26;;;;;;;10.43;6.35;;;4.50;84.20;;;;;;5083214;28;20383;-74
2021/01/06 08:22:11;;;;;;;7.22;5.35;;;4.50;84.20;;;;;;5091538;28;20028;-73
2021/01/06 08:24:53;;;;;;;10.60;6.47;;;4.60;84.80;;;;;;5093055;28;20448;-73
2021/01/06 08:27:36;;;;;;;8.07;5.95;;;4.60;83.80;;;;;;5091542;28;20081;-73
2021/01/06 08:30:11;;;;;;;8.60;6.25;;;4.50;83.80;;;;;;5091215;28;20024;-74
2021/01/06 08:32:37;;;;;;;9.82;6.65;;;4.50;83.90;;;;;;5092615;28;20432;-73
2021/01/06 08:35:07;;;;;;;8.35;6.30;;;4.50;83.90;;;;;;5091278;28;20056;-73
2021/01/06 08:37:37;;;;;;;8.07;6.00;;;4.50;83.80;;;;;;5092599;28;20103;-73
2021/01/06 08:40:22;;;;;;;8.35;5.90;;;4.60;83.90;;;;;;5092704;28;20024;-73
2021/01/06 08:42:48;;;;;;;10.52;6.47;;;4.50;83.80;;;;;;5091268;28;20047;-73
2021/01/06 08:45:26;;;;;;;10.15;6.88;;;4.50;83.80;;;;;;5091255;28;20116;-73
2021/01/06 08:47:52;;;;;;;7.60;5.78;;;4.60;83.60;;;;;;5091256;28;20035;-74
2021/01/06 08:50:37;;;;;;;9.60;5.78;;;4.50;83.80;;;;;;5092736;28;20024;-73
2021/01/06 08:53:05;;;;;;;7.93;6.00;;;4.60;83.80;;;;;;5091459;28;20016;-73
2021/01/06 08:55:42;;;;;;;7.95;6.15;;;4.60;83.70;;;;;;5092755;28;20048;-73
2021/01/06 08:58:16;;;;;;;8.63;5.95;;;4.60;83.60;;;;;;5092878;28;20028;-73
2021/01/06 09:00:56;;;;;;;9.02;6.43;;;4.60;83.30;;;;;;5091298;28;20119;-73
2021/01/06 09:04:02;;;;;;;8.88;5.95;;;4.60;83.30;;;;;;5092518;28;20024;-74
2021/01/06 09:07:09;;;;;;;8.00;6.05;;;4.60;83.30;;;;;;5091182;28;20391;-73
2021/01/06 09:10:05;;;;;;;7.47;5.95;;;4.60;83.20;;;;;;5091016;28;20038;-73
2021/01/06 09:12:52;;;;;;;8.68;6.07;;;4.60;82.90;;;;;;5090807;28;20394;-73
2021/01/06 09:18:56;;;;;;;7.43;5.68;;;4.60;82.50;;;;;;5096325;28;20548;-72
2021/01/06 09:21:25;;;;;;;7.90;5.47;;;4.70;82.60;;;;;;5094636;28;20542;-73
2021/01/06 09:24:03;;;;;;;8.57;5.10;;;4.70;82.60;;;;;;5094620;28;20430;-73
2021/01/06 09:26:29;;;;;;;8.32;5.43;;;4.80;82.30;;;;;;5094551;28;20043;-73
2021/01/06 09:29:06;;;;;;;8.07;5.40;;;4.80;82.20;;;;;;5094389;28;20487;-73
2021/01/06 09:31:38;;;;;;;6.90;5.13;;;4.80;82.10;;;;;;5094405;28;20020;-73
2021/01/06 09:34:05;;;;;;;7.93;5.57;;;4.90;82.20;;;;;;5095669;28;20028;-72
2021/01/06 09:36:31;;;;;;;7.80;5.65;;;4.90;82.10;;;;;;5094336;28;20050;-72
2021/01/06 09:38:57;;;;;;;11.75;5.93;;;4.90;81.90;;;;;;5094243;28;20119;-73
2021/01/06 09:41:29;;;;;;;9.07;5.70;;;4.80;81.70;;;;;;5096368;28;20020;-73
2021/01/06 09:44:05;;;;;;;7.95;5.97;;;4.80;81.60;;;;;;5095327;28;20387;-72
2021/01/06 09:46:56;;;;;;;7.25;5.63;;;4.80;81.60;;;;;;5094082;28;20025;-73
2021/01/06 09:52:46;;;;;;;7.38;5.20;;;4.90;81.70;;;;;;5096655;28;20482;-73
2021/01/06 09:55:19;;;;;;;6.65;5.32;;;4.90;81.50;;;;;;5093868;28;20035;-73
2021/01/06 09:58:02;;;;;;;8.13;5.20;;;5.00;81.50;;;;;;5094408;28;20522;-74
2021/01/06 10:00:35;;;;;;;6.65;5.10;;;5.00;81.40;;;;;;5095252;28;20020;-73
2021/01/06 10:03:02;;;;;;;6.93;5.20;;;5.00;81.30;;;;;;5094607;28;20024;-73
2021/01/06 10:05:57;;;;;;;9.13;5.57;;;5.10;81.10;;;;;;5093933;28;20091;-74
2021/01/06 10:09:08;;;;;;;9.90;6.05;;;5.00;80.70;;;;;;5086440;28;20039;-73
2021/01/06 10:11:55;;;;;;;9.52;6.45;;;4.90;80.50;;;;;;5093532;28;20068;-74
2021/01/06 10:14:29;;;;;;;8.20;6.32;;;4.90;80.80;;;;;;5093560;28;20032;-73
2021/01/06 10:17:12;;;;;;;8.32;5.95;;;4.90;80.80;;;;;;5093602;28;20020;-74
2021/01/06 10:20:10;;;;;;;8.65;5.47;;;4.90;80.80;;;;;;5093576;28;20067;-73
2021/01/06 10:22:52;;;;;;;8.48;5.53;;;4.80;80.70;;;;;;5093141;28;20047;-73
2021/01/06 10:25:46;;;;;;;8.10;5.13;;;4.80;80.80;;;;;;5094235;28;20444;-73
2021/01/06 10:28:28;;;;;;;7.57;5.47;;;4.80;80.90;;;;;;5094889;28;20178;-73
2021/01/06 10:31:10;;;;;;;8.15;5.07;;;4.90;80.80;;;;;;5093272;28;20020;-72
2021/01/06 10:33:56;;;;;;;7.28;5.00;;;4.90;80.80;;;;;;5093882;28;20467;-74
2021/01/06 10:37:05;;;;;;;7.35;5.30;;;4.90;80.80;;;;;;5093610;28;20034;-73
2021/01/06 10:39:40;;;;;;;7.15;4.72;;;5.00;80.80;;;;;;5093544;28;20533;-73
2021/01/06 10:42:17;;;;;;;7.32;5.63;;;5.00;80.60;;;;;;5093745;28;20391;-73
2021/01/06 10:45:12;;;;;;;7.45;5.18;;;5.00;80.20;;;;;;5093141;28;20028;-73
2021/01/06 10:47:56;;;;;;;8.85;5.70;;;5.00;80.40;;;;;;5094296;28;20028;-74
2021/01/06 10:50:26;;;;;;;7.43;5.05;;;5.00;80.10;;;;;;5094415;28;20091;-73
2021/01/06 10:53:08;;;;;;;8.43;4.50;;;5.00;79.90;;;;;;5094320;28;20540;-73
2021/01/06 10:55:53;;;;;;;5.88;4.32;;;5.00;79.90;;;;;;5092718;28;20059;-72
2021/01/06 10:58:36;;;;;;;8.00;4.85;;;4.90;79.90;;;;;;5092798;28;20026;-73
2021/01/06 11:01:24;;;;;;;7.28;5.22;;;5.00;80.00;;;;;;5092773;28;20364;-73
2021/01/06 11:04:12;;;;;;;6.88;4.50;;;4.90;79.90;;;;;;5064757;28;20028;-73
2021/01/06 11:06:57;;;;;;;6.57;4.38;;;4.90;79.50;;;;;;5092831;28;20043;-73
2021/01/06 11:09:57;;;;;;;6.82;4.25;;;4.90;79.50;;;;;;5094492;28;20380;-73
2021/01/06 11:13:07;;;;;;;8.45;4.40;;;4.90;79.50;;;;;;5092517;28;20040;-76
2021/01/06 11:16:11;;;;;;;6.22;4.43;;;4.90;79.40;;;;;;5051719;28;20211;-73
2021/01/06 11:18:43;;;;;;;9.75;4.30;;;4.80;79.40;;;;;;5093752;28;20130;-73
2021/01/06 11:21:21;;;;;;;9.35;4.00;;;4.80;79.10;;;;;;5092363;28;20044;-73
2021/01/06 11:23:54;;;;;;;7.43;4.03;;;4.80;79.00;;;;;;5092402;28;20020;-72
2021/01/06 11:26:32;;;;;;;8.00;4.15;;;4.80;79.10;;;;;;5092631;28;20036;-73
2021/01/06 11:29:06;;;;;;;6.00;3.42;;;4.80;79.10;;;;;;5094131;28;20390;-73
2021/01/06 11:31:34;;;;;;;5.90;3.80;;;4.80;79.10;;;;;;5093154;28;20024;-75
2021/01/06 11:34:09;;;;;;;5.40;3.63;;;4.90;79.60;;;;;;5092533;28;20106;-74
2021/01/06 11:36:54;;;;;;;5.85;3.47;;;4.90;79.10;;;;;;5091493;28;20543;-74
2021/01/06 11:39:38;;;;;;;6.13;3.67;;;5.00;79.00;;;;;;5093709;28;20099;-74
2021/01/06 11:42:14;;;;;;;5.03;3.30;;;5.10;79.10;;;;;;5094111;28;20052;-73
2021/01/06 11:44:51;;;;;;;5.65;3.70;;;5.10;79.10;;;;;;5092179;28;20020;-74
2021/01/06 11:47:43;;;;;;;5.70;3.30;;;5.20;78.90;;;;;;5093467;28;20438;-73
2021/01/06 11:50:44;;;;;;;5.88;2.92;;;5.30;78.60;;;;;;5092228;28;20028;-73
2021/01/06 11:53:28;;;;;;;7.28;3.50;;;5.30;78.40;;;;;;5093522;28;20433;-73
2021/01/06 11:55:59;;;;;;;;;;;5.30;78.30;;;;;;5092574;28;20022;-73
2021/01/06 11:58:43;;;;;;;4.93;3.70;;;5.30;78.10;;;;;;5091895;28;19911;-73
2021/01/06 12:01:51;;;;;;;5.60;3.65;;;5.30;78.00;;;;;;5093274;28;20106;-73
2021/01/06 12:04:53;;;;;;;5.75;3.45;;;5.30;78.10;;;;;;5093692;28;20024;-75
2021/01/06 12:07:30;;;;;;;6.30;3.58;;;5.30;78.10;;;;;;5091641;28;20020;-74
2021/01/06 12:10:22;;;;;;;5.28;3.63;;;5.40;78.00;;;;;;5091461;28;20081;-74
2021/01/06 12:13:09;;;;;;;5.00;3.30;;;5.40;77.90;;;;;;5092541;28;20048;-74
2021/01/06 12:16:12;;;;;;;4.85;3.50;;;5.40;77.70;;;;;;5092724;28;20036;-73
2021/01/06 12:18:56;;;;;;;6.13;3.03;;;5.40;77.20;;;;;;5091636;28;20028;-74
2021/01/06 12:21:34;;;;;;;4.65;3.17;;;5.40;76.10;;;;;;5091408;28;20024;-74
2021/01/06 12:24:23;;;;;;;4.88;2.90;;;5.30;76.50;;;;;;5092690;28;20020;-74
2021/01/06 12:26:56;;;;;;;8.15;3.50;;;5.20;76.80;;;;;;5092880;28;20039;-74
2021/01/06 12:29:28;;;;;;;6.40;3.40;;;5.20;77.10;;;;;;5093016;28;20065;-74
2021/01/06 12:31:53;;;;;;;5.55;3.10;;;5.20;76.80;;;;;;5091703;28;20476;-74
2021/01/06 12:34:31;;;;;;;5.95;2.90;;;5.20;76.70;;;;;;5091416;28;20137;-74
2021/01/06 12:37:11;;;;;;;3.70;2.60;;;5.20;76.40;;;;;;5091398;28;20379;-74
2021/01/06 12:39:47;;;;;;;4.20;2.28;;;5.10;76.20;;;;;;5092596;28;20027;-74
2021/01/06 12:42:13;;;;;;;3.83;2.58;;;5.10;76.30;;;;;;5091183;28;20056;-74
2021/01/06 12:44:45;;;;;;;4.22;2.72;;;5.10;76.00;;;;;;5091321;28;20063;-74
2021/01/06 12:47:21;;;;;;;5.00;2.50;;;5.20;76.10;;;;;;5091349;28;20085;-74
2021/01/06 12:50:21;;;;;;;3.42;2.38;;;5.20;76.20;;;;;;5096480;28;20126;-74
2021/01/06 12:52:57;;;;;;;4.63;2.75;;;5.20;75.30;;;;;;5037641;28;20619;-74
2021/01/06 12:55:34;;;;;;;3.15;2.45;;;5.20;75.90;;;;;;5086922;28;20028;-74
2021/01/06 12:58:19;;;;;;;3.08;2.40;;;5.20;76.00;;;;;;5094946;28;20024;-74
2021/01/06 13:00:46;;;;;;;3.70;2.30;;;5.30;75.80;;;;;;5096385;28;20024;-74
2021/01/06 13:03:33;;;;;;;4.13;2.53;;;5.30;75.60;;;;;;5094918;28;20031;-74
2021/01/06 13:06:22;;;;;;;3.33;2.25;;;5.30;75.40;;;;;;5094935;28;20032;-74
2021/01/06 13:09:12;;;;;;;2.88;2.20;;;5.30;75.30;;;;;;5088546;28;20519;-74
2021/01/06 13:11:37;;;;;;;3.10;2.08;;;5.30;75.30;;;;;;5096223;28;20457;-74
2021/01/06 13:14:34;;;;;;;4.20;2.50;;;5.30;75.40;;;;;;5094760;28;20147;-74
2021/01/06 13:17:13;;;;;;;3.58;2.38;;;5.30;75.50;;;;;;5094842;28;20391;-74
2021/01/06 13:20:02;;;;;;;5.70;2.50;;;5.40;75.60;;;;;;5094641;28;20028;-74
2021/01/06 13:22:42;;;;;;;4.03;2.65;;;5.50;75.30;;;;;;5094658;28;20226;-74
2021/01/06 13:25:17;;;;;;;2.63;2.22;;;5.60;75.40;;;;;;5096032;28;20028;-74
2021/01/06 13:28:23;;;;;;;3.85;2.45;;;5.60;75.20;;;;;;5094614;28;20059;-74
2021/01/06 13:31:08;;;;;;;4.38;2.53;;;5.70;75.20;;;;;;5095330;28;20093;-74
2021/01/06 13:34:12;;;;;;;4.47;2.25;;;5.70;74.90;;;;;;5094544;28;20474;-74
2021/01/06 13:36:46;;;;;;;4.07;2.58;;;5.70;74.80;;;;;;5095446;28;20040;-74
2021/01/06 13:39:33;;;;;;;4.15;2.25;;;5.70;74.80;;;;;;5096301;28;20047;-74
2021/01/06 13:42:22;;;;;;;4.10;1.90;;;5.80;74.60;;;;;;5095562;28;20028;-73
2021/01/06 13:44:51;;;;;;;4.15;2.42;;;5.70;74.50;;;;;;5095622;28;20372;-74
2021/01/06 13:47:24;;;;;;;3.05;2.00;;;5.70;74.30;;;;;;5094174;28;20036;-74
2021/01/06 13:49:52;;;;;;;3.95;2.20;;;5.60;74.40;;;;;;5095574;28;20024;-74
2021/01/06 13:52:34;;;;;;;4.25;2.40;;;5.60;74.60;;;;;;5095470;28;20547;-74
2021/01/06 13:55:36;;;;;;;3.05;1.65;;;5.50;74.30;;;;;;5095474;28;20024;-74